Time;durP1;ratioP1;P1;durP2;ratioP2;P2;SDS_P1;SDS_P2;PMS_P1;PMS_P2;Temp;Humidity;BMP_temperature;BMP_pressure;BME280_temperature;BME280_humidity;BME280_pressure;Samples;Min_cycle;Max_cycle;Signal;HPM_P1;HPM_P2
2023/07/27 00:02:22;;;;;;;3.55;1.52;;;16.20;99.90;;;;;;4995144;28;20026;-70
2023/07/27 00:04:47;;;;;;;3.47;1.38;;;16.20;99.90;;;;;;4996207;28;20042;-71
2023/07/27 00:07:13;;;;;;;2.85;1.23;;;16.20;99.90;;;;;;4995755;28;20030;-69
2023/07/27 00:09:38;;;;;;;3.30;1.20;;;16.20;99.90;;;;;;4994378;28;20382;-70
2023/07/27 00:12:04;;;;;;;3.10;1.27;;;16.20;99.90;;;;;;4996219;28;20038;-70
2023/07/27 00:14:30;;;;;;;2.75;1.17;;;16.30;99.90;;;;;;4989084;28;20061;-70
2023/07/27 00:16:55;;;;;;;1.95;1.05;;;16.20;99.90;;;;;;4995193;28;20038;-69
2023/07/27 00:19:21;;;;;;;3.35;1.25;;;16.20;99.90;;;;;;4993552;28;20093;-70
2023/07/27 00:21:46;;;;;;;4.35;1.70;;;16.20;99.90;;;;;;4992014;28;20100;-70
2023/07/27 00:24:12;;;;;;;4.93;2.10;;;16.10;99.90;;;;;;4996015;28;20045;-70
2023/07/27 00:26:38;;;;;;;5.45;1.80;;;16.00;99.90;;;;;;4996409;28;20046;-71
2023/07/27 00:29:03;;;;;;;4.45;1.88;;;15.90;99.90;;;;;;4991229;28;20717;-70
2023/07/27 00:31:29;;;;;;;5.45;2.45;;;15.80;99.90;;;;;;4997728;28;20440;-71
2023/07/27 00:33:54;;;;;;;4.28;1.92;;;15.70;99.90;;;;;;4997338;28;20156;-70
2023/07/27 00:36:20;;;;;;;4.80;2.38;;;15.60;99.90;;;;;;4999320;28;20033;-70
2023/07/27 00:38:45;;;;;;;6.75;1.77;;;15.50;99.90;;;;;;4999643;28;20053;-70
2023/07/27 00:41:11;;;;;;;6.93;2.58;;;15.40;99.90;;;;;;5006357;28;20038;-71
2023/07/27 00:43:36;;;;;;;6.00;2.35;;;15.30;99.90;;;;;;4999572;28;20034;-71
2023/07/27 00:46:02;;;;;;;4.28;2.28;;;15.10;99.90;;;;;;4997209;28;20042;-70
2023/07/27 00:48:28;;;;;;;7.95;2.88;;;15.10;99.90;;;;;;5005149;28;20046;-71
2023/07/27 00:50:54;;;;;;;8.50;2.90;;;15.00;99.90;;;;;;4998133;28;20125;-70
2023/07/27 00:53:20;;;;;;;7.60;3.17;;;15.00;99.90;;;;;;4999162;28;20033;-69
2023/07/27 00:55:46;;;;;;;5.00;2.83;;;14.90;99.90;;;;;;5008932;28;20042;-70
2023/07/27 00:58:12;;;;;;;5.22;1.90;;;14.90;99.90;;;;;;5003973;28;20033;-70
2023/07/27 01:00:42;;;;;;;4.50;2.20;;;14.90;99.90;;;;;;4999718;28;20069;-69
2023/07/27 01:03:08;;;;;;;6.25;2.92;;;14.90;99.90;;;;;;4998274;28;20038;-70
2023/07/27 01:05:34;;;;;;;5.95;2.50;;;14.90;99.90;;;;;;4994723;28;20038;-69
2023/07/27 01:07:59;;;;;;;5.82;2.95;;;14.90;99.90;;;;;;4999689;28;20089;-70
2023/07/27 01:10:49;;;;;;;6.30;3.05;;;14.90;99.90;;;;;;5000419;28;20042;-71
2023/07/27 01:13:51;;;;;;;7.53;2.30;;;14.90;99.90;;;;;;4994137;28;20046;-70
2023/07/27 01:16:44;;;;;;;5.50;2.72;;;14.90;99.90;;;;;;4964441;28;20030;-68
2023/07/27 01:19:31;;;;;;;8.63;2.58;;;14.90;99.90;;;;;;4998000;28;20046;-71
2023/07/27 01:22:36;;;;;;;4.70;2.22;;;14.90;99.90;;;;;;4995480;28;20030;-69
2023/07/27 01:25:02;;;;;;;6.40;2.50;;;14.90;99.90;;;;;;4998056;28;20045;-70
2023/07/27 01:27:58;;;;;;;10.18;3.33;;;14.90;99.90;;;;;;4994914;28;20031;-69
2023/07/27 01:30:35;;;;;;;4.80;2.00;;;14.90;99.90;;;;;;4999800;28;20034;-71
2023/07/27 01:33:05;;;;;;;6.85;2.17;;;14.80;99.90;;;;;;4994816;28;20047;-69
2023/07/27 01:35:42;;;;;;;7.85;2.50;;;14.90;99.90;;;;;;4994821;28;20050;-70
2023/07/27 01:38:10;;;;;;;5.65;2.30;;;14.80;99.90;;;;;;4997674;28;20041;-72
2023/07/27 01:40:38;;;;;;;5.45;2.63;;;14.80;99.90;;;;;;4997293;28;20084;-70
2023/07/27 01:43:04;;;;;;;6.60;2.67;;;14.80;99.90;;;;;;5005548;28;20554;-70
2023/07/27 01:45:30;;;;;;;6.57;2.30;;;14.80;99.90;;;;;;4995430;28;20050;-72
2023/07/27 01:47:57;;;;;;;4.78;1.90;;;14.80;99.90;;;;;;4998711;28;20030;-69
2023/07/27 01:50:23;;;;;;;4.47;1.70;;;14.80;99.90;;;;;;4994263;28;20030;-70
2023/07/27 01:52:48;;;;;;;4.55;1.70;;;14.70;99.90;;;;;;4998213;28;20030;-71
2023/07/27 01:55:15;;;;;;;4.22;1.75;;;14.70;99.90;;;;;;4995797;28;20022;-70
2023/07/27 01:57:42;;;;;;;3.63;1.83;;;14.70;99.90;;;;;;5002779;28;20026;-70
2023/07/27 02:00:09;;;;;;;3.88;1.92;;;14.70;99.90;;;;;;5000371;28;20026;-70
2023/07/27 02:02:35;;;;;;;3.80;1.40;;;14.60;99.90;;;;;;4997832;28;20034;-70
2023/07/27 02:05:01;;;;;;;4.55;1.15;;;14.60;99.90;;;;;;4996234;28;20117;-70
2023/07/27 02:07:27;;;;;;;3.13;1.20;;;14.60;99.90;;;;;;4999039;28;20153;-70
2023/07/27 02:09:52;;;;;;;2.08;0.80;;;14.60;99.90;;;;;;4994112;28;20034;-70
2023/07/27 02:12:26;;;;;;;4.22;1.40;;;14.60;99.90;;;;;;5000048;28;20545;-70
2023/07/27 02:15:22;;;;;;;3.35;1.00;;;14.50;99.90;;;;;;4995737;28;20520;-69
2023/07/27 02:17:53;;;;;;;3.70;1.48;;;14.50;99.90;;;;;;4995280;28;20042;-71
2023/07/27 02:20:21;;;;;;;2.40;1.27;;;14.50;99.90;;;;;;4999700;28;20071;-69
2023/07/27 02:22:48;;;;;;;4.53;1.42;;;14.50;99.90;;;;;;4997088;28;20495;-69
2023/07/27 02:25:13;;;;;;;3.08;1.23;;;14.50;99.90;;;;;;4997613;28;20381;-70
2023/07/27 02:27:39;;;;;;;3.13;1.27;;;14.50;99.90;;;;;;4996693;28;20037;-70
2023/07/27 02:30:05;;;;;;;3.72;1.73;;;14.50;99.90;;;;;;4997428;28;20083;-69
2023/07/27 02:32:32;;;;;;;7.68;1.65;;;14.50;99.90;;;;;;4995632;28;20042;-69
2023/07/27 02:34:57;;;;;;;5.60;1.60;;;14.50;99.90;;;;;;5005891;28;20060;-69
2023/07/27 02:37:23;;;;;;;4.45;1.58;;;14.40;99.90;;;;;;5008313;28;20115;-70
2023/07/27 02:39:49;;;;;;;3.67;1.50;;;14.50;99.90;;;;;;5010658;28;20668;-71
2023/07/27 02:42:14;;;;;;;5.10;2.10;;;14.50;99.90;;;;;;5006463;28;20034;-69
2023/07/27 02:44:40;;;;;;;4.43;1.63;;;14.50;99.90;;;;;;4997371;28;20038;-74
2023/07/27 02:47:05;;;;;;;6.18;1.63;;;14.40;99.90;;;;;;4998172;28;20528;-71
2023/07/27 02:49:31;;;;;;;7.85;1.88;;;14.50;99.90;;;;;;5002593;28;20518;-71
2023/07/27 02:51:57;;;;;;;3.22;1.58;;;14.50;99.90;;;;;;4993410;28;20491;-70
2023/07/27 02:54:22;;;;;;;5.07;2.58;;;14.50;99.90;;;;;;4995652;28;20045;-71
2023/07/27 02:56:48;;;;;;;4.00;1.67;;;14.50;99.90;;;;;;5005347;28;20026;-70
2023/07/27 02:59:14;;;;;;;5.47;1.90;;;14.50;99.90;;;;;;4996512;28;20045;-70
2023/07/27 03:01:40;;;;;;;5.63;1.95;;;14.60;99.90;;;;;;4998024;28;20033;-69
2023/07/27 03:04:05;;;;;;;7.00;2.60;;;14.50;99.90;;;;;;4995732;28;20092;-70
2023/07/27 03:06:31;;;;;;;5.65;2.22;;;14.50;99.90;;;;;;4995452;28;20117;-69
2023/07/27 03:08:56;;;;;;;4.80;2.47;;;14.50;99.90;;;;;;4996542;28;20038;-70
2023/07/27 03:11:22;;;;;;;3.53;2.13;;;14.60;99.90;;;;;;4996130;28;20467;-69
2023/07/27 03:13:47;;;;;;;4.55;2.17;;;14.50;99.90;;;;;;4999798;28;20061;-70
2023/07/27 03:16:13;;;;;;;5.13;2.30;;;14.60;99.90;;;;;;4994249;28;20042;-69
2023/07/27 03:18:38;;;;;;;8.65;3.13;;;14.60;99.90;;;;;;4995734;28;20042;-71
2023/07/27 03:21:05;;;;;;;5.15;2.50;;;14.50;99.90;;;;;;4998431;28;20516;-69
2023/07/27 03:23:30;;;;;;;7.78;3.20;;;14.60;99.90;;;;;;4995131;28;20050;-70
2023/07/27 03:25:56;;;;;;;5.95;2.83;;;14.60;99.90;;;;;;4995805;28;20125;-70
2023/07/27 03:28:21;;;;;;;4.93;3.38;;;14.60;99.90;;;;;;4995396;28;20054;-70
2023/07/27 03:30:47;;;;;;;7.70;3.60;;;14.60;99.90;;;;;;4995673;28;20068;-69
2023/07/27 03:33:13;;;;;;;7.70;3.72;;;14.60;99.90;;;;;;4993657;28;20460;-70
2023/07/27 03:35:38;;;;;;;5.95;3.25;;;14.60;99.90;;;;;;4992904;28;20050;-69
2023/07/27 03:38:04;;;;;;;11.32;5.22;;;14.60;99.90;;;;;;4996217;28;20574;-70
2023/07/27 03:40:29;;;;;;;9.98;4.57;;;14.50;99.90;;;;;;4996470;28;20048;-70
2023/07/27 03:42:55;;;;;;;10.50;4.53;;;14.60;99.90;;;;;;4993646;28;20037;-69
2023/07/27 03:45:21;;;;;;;8.25;4.00;;;14.60;99.90;;;;;;4994083;28;20042;-69
2023/07/27 03:47:46;;;;;;;11.40;5.10;;;14.60;99.90;;;;;;4998343;28;20403;-70
2023/07/27 03:50:12;;;;;;;8.77;4.30;;;14.60;99.90;;;;;;4994675;28;20066;-70
2023/07/27 03:52:38;;;;;;;8.55;4.60;;;14.60;99.90;;;;;;4996226;28;20034;-69
2023/07/27 03:55:04;;;;;;;10.52;4.80;;;14.60;99.90;;;;;;4994381;28;20044;-70
2023/07/27 03:57:31;;;;;;;11.57;4.28;;;14.60;99.90;;;;;;4997397;28;20125;-69
2023/07/27 03:59:58;;;;;;;11.68;4.60;;;14.60;99.90;;;;;;4995304;28;20567;-70
2023/07/27 04:02:25;;;;;;;11.43;4.80;;;14.60;99.90;;;;;;4995981;28;20473;-70
2023/07/27 04:04:51;;;;;;;12.82;4.95;;;14.50;99.90;;;;;;4994737;28;20672;-70
2023/07/27 04:07:18;;;;;;;11.40;4.30;;;14.50;99.90;;;;;;4993495;28;20022;-68
2023/07/27 04:09:43;;;;;;;13.32;4.70;;;14.40;99.90;;;;;;4996112;28;20025;-70
2023/07/27 04:12:09;;;;;;;10.38;4.13;;;14.40;99.90;;;;;;4992857;28;20026;-69
2023/07/27 04:14:35;;;;;;;8.27;3.88;;;14.40;99.90;;;;;;5001151;28;20038;-69
2023/07/27 04:17:01;;;;;;;10.20;4.03;;;14.40;99.90;;;;;;4998178;28;20453;-70
2023/07/27 04:19:27;;;;;;;7.05;3.95;;;14.50;99.90;;;;;;5002338;28;20038;-70
2023/07/27 04:21:52;;;;;;;9.52;3.88;;;14.50;99.90;;;;;;4997347;28;20046;-70
2023/07/27 04:24:18;;;;;;;11.27;4.10;;;14.50;99.90;;;;;;4999348;28;20038;-70
2023/07/27 04:26:43;;;;;;;9.07;4.30;;;14.50;99.90;;;;;;4997400;28;20037;-71
2023/07/27 04:29:09;;;;;;;9.95;3.97;;;14.50;99.90;;;;;;5001033;28;20073;-70
2023/07/27 04:31:34;;;;;;;9.02;4.07;;;14.50;99.90;;;;;;4997116;28;20042;-70
2023/07/27 04:34:00;;;;;;;8.27;3.97;;;14.50;99.90;;;;;;4997993;28;20557;-71
2023/07/27 04:36:25;;;;;;;8.73;3.38;;;14.50;99.90;;;;;;4999248;28;20073;-69
2023/07/27 04:38:51;;;;;;;8.00;3.80;;;14.40;99.90;;;;;;4996413;28;20045;-70
2023/07/27 04:41:16;;;;;;;10.90;4.00;;;14.50;99.90;;;;;;4998869;28;20057;-70
2023/07/27 04:43:42;;;;;;;8.75;3.53;;;14.50;99.90;;;;;;4997627;28;20039;-69
2023/07/27 04:46:08;;;;;;;9.43;4.13;;;14.50;99.90;;;;;;4998956;28;20036;-69
2023/07/27 04:48:33;;;;;;;11.10;4.65;;;14.50;99.90;;;;;;4999585;28;20068;-71
2023/07/27 04:50:59;;;;;;;8.30;3.45;;;14.50;99.90;;;;;;4996296;28;20080;-70
2023/07/27 04:53:24;;;;;;;8.77;4.07;;;14.50;99.90;;;;;;4999410;28;20148;-71
2023/07/27 04:55:50;;;;;;;7.38;3.63;;;14.50;99.90;;;;;;4996965;28;20520;-70
2023/07/27 04:58:15;;;;;;;10.20;4.10;;;14.50;99.90;;;;;;5004062;28;20545;-69
2023/07/27 05:00:41;;;;;;;10.38;3.95;;;14.50;99.90;;;;;;4995714;28;20034;-73
2023/07/27 05:03:07;;;;;;;13.50;3.85;;;14.50;99.90;;;;;;5000520;28;20042;-71
2023/07/27 05:05:32;;;;;;;9.05;3.70;;;14.50;99.90;;;;;;4998142;28;20131;-69
2023/07/27 05:07:58;;;;;;;11.00;3.53;;;14.60;99.90;;;;;;4997360;28;20038;-69
2023/07/27 05:10:23;;;;;;;6.53;3.25;;;14.60;99.90;;;;;;4995233;28;20412;-69
2023/07/27 05:12:49;;;;;;;6.85;3.03;;;14.60;99.90;;;;;;4998549;28;20037;-69
2023/07/27 05:15:15;;;;;;;7.30;3.13;;;14.60;99.90;;;;;;4996550;28;20488;-68
2023/07/27 05:17:41;;;;;;;6.22;2.95;;;14.60;99.90;;;;;;5000437;28;20033;-70
2023/07/27 05:20:07;;;;;;;6.90;2.78;;;14.60;99.90;;;;;;4996645;28;20026;-69
2023/07/27 05:22:33;;;;;;;4.88;2.15;;;14.70;99.90;;;;;;4998401;28;20045;-69
2023/07/27 05:24:59;;;;;;;5.60;2.75;;;14.70;99.90;;;;;;4996489;28;20041;-69
2023/07/27 05:27:25;;;;;;;7.63;2.65;;;14.70;99.90;;;;;;4997453;28;20035;-69
2023/07/27 05:29:50;;;;;;;5.47;2.30;;;14.70;99.90;;;;;;4996850;28;20085;-68
2023/07/27 05:32:16;;;;;;;4.78;1.98;;;14.70;99.90;;;;;;4999320;28;20041;-70
2023/07/27 05:34:41;;;;;;;3.95;2.33;;;14.80;99.90;;;;;;5000762;28;20034;-70
2023/07/27 05:37:07;;;;;;;6.07;2.20;;;14.80;99.90;;;;;;5000935;28;20057;-69
2023/07/27 05:39:32;;;;;;;6.88;2.55;;;14.80;99.90;;;;;;4996740;28;20432;-69
2023/07/27 05:41:58;;;;;;;4.20;2.08;;;14.80;99.90;;;;;;4995978;28;20049;-69
2023/07/27 05:44:24;;;;;;;7.43;2.35;;;14.90;99.90;;;;;;4998642;28;20181;-69
2023/07/27 05:46:54;;;;;;;3.15;2.00;;;14.90;99.90;;;;;;4995921;28;20049;-69
2023/07/27 05:49:19;;;;;;;4.38;2.10;;;14.90;99.90;;;;;;5004225;28;20061;-71
2023/07/27 05:51:45;;;;;;;3.53;2.20;;;14.90;99.90;;;;;;4994686;28;20050;-72
2023/07/27 05:54:10;;;;;;;5.75;2.20;;;15.00;99.90;;;;;;4999089;28;20030;-70
2023/07/27 05:56:36;;;;;;;5.28;2.00;;;15.00;99.90;;;;;;4997010;28;20026;-68
2023/07/27 05:59:01;;;;;;;6.10;2.00;;;15.00;99.90;;;;;;5001952;28;20046;-70
2023/07/27 06:01:27;;;;;;;3.85;1.75;;;15.00;99.90;;;;;;4996440;28;20411;-69
2023/07/27 06:03:53;;;;;;;2.95;1.70;;;15.10;99.90;;;;;;4996032;28;20042;-71
2023/07/27 06:06:18;;;;;;;4.43;1.83;;;15.10;99.90;;;;;;4997043;28;20484;-69
2023/07/27 06:08:44;;;;;;;2.83;1.67;;;15.10;99.90;;;;;;4995138;28;20066;-72
2023/07/27 06:11:09;;;;;;;3.60;1.48;;;15.20;99.90;;;;;;4997986;28;20034;-70
2023/07/27 06:13:37;;;;;;;4.93;1.70;;;15.20;99.90;;;;;;4994211;28;20035;-69
2023/07/27 06:16:03;;;;;;;2.47;1.45;;;15.20;99.90;;;;;;4992831;28;20030;-69
2023/07/27 06:18:30;;;;;;;2.92;1.42;;;15.30;99.90;;;;;;4994599;28;20046;-71
2023/07/27 06:20:57;;;;;;;3.90;1.60;;;15.30;99.90;;;;;;4996917;28;20042;-70
2023/07/27 06:23:22;;;;;;;4.03;1.58;;;15.40;99.90;;;;;;4996809;28;20042;-69
2023/07/27 06:25:49;;;;;;;2.78;1.58;;;15.40;99.90;;;;;;4994708;28;20842;-70
2023/07/27 06:28:15;;;;;;;2.60;1.45;;;15.40;99.90;;;;;;4995755;28;20046;-70
2023/07/27 06:30:41;;;;;;;1.90;1.40;;;15.50;99.90;;;;;;4996214;28;20026;-71
2023/07/27 06:33:06;;;;;;;2.35;1.25;;;15.50;99.90;;;;;;4992139;28;20038;-70
2023/07/27 06:35:33;;;;;;;4.03;1.75;;;15.60;99.90;;;;;;4992839;28;20034;-70
2023/07/27 06:37:58;;;;;;;2.22;1.60;;;15.60;99.90;;;;;;5006625;28;20034;-69
2023/07/27 06:40:24;;;;;;;2.45;1.65;;;15.60;99.90;;;;;;5013148;28;20026;-70
2023/07/27 06:42:50;;;;;;;3.67;1.48;;;15.70;99.90;;;;;;4997237;28;20500;-70
2023/07/27 06:45:16;;;;;;;2.63;1.88;;;15.80;99.90;;;;;;4994963;28;20036;-71
2023/07/27 06:47:41;;;;;;;2.55;1.38;;;15.80;99.90;;;;;;5001394;28;20025;-70
2023/07/27 06:50:07;;;;;;;2.50;1.40;;;15.90;99.90;;;;;;4997205;28;20034;-70
2023/07/27 06:52:33;;;;;;;1.20;1.10;;;15.90;99.90;;;;;;4994531;28;20035;-70
2023/07/27 06:54:58;;;;;;;1.73;1.10;;;16.00;99.90;;;;;;4995975;28;20046;-71
2023/07/27 06:57:27;;;;;;;1.75;1.40;;;16.00;99.90;;;;;;5013710;28;20050;-69
2023/07/27 06:59:53;;;;;;;3.28;1.40;;;16.10;99.90;;;;;;5002383;28;20495;-70
2023/07/27 07:02:18;;;;;;;2.00;1.27;;;16.10;99.90;;;;;;5007810;28;20037;-69
2023/07/27 07:04:45;;;;;;;1.98;1.38;;;16.20;99.90;;;;;;5012599;28;20021;-70
2023/07/27 07:07:11;;;;;;;2.25;1.17;;;16.20;99.90;;;;;;4997774;28;20029;-69
2023/07/27 07:09:38;;;;;;;2.97;1.20;;;16.30;99.90;;;;;;5000619;28;20117;-69
2023/07/27 07:12:04;;;;;;;2.97;1.17;;;16.30;99.90;;;;;;5006886;28;20034;-69
2023/07/27 07:14:30;;;;;;;1.63;1.13;;;16.40;99.90;;;;;;4997356;28;20037;-71
2023/07/27 07:16:56;;;;;;;1.95;1.50;;;16.40;99.90;;;;;;4995571;28;20034;-70
2023/07/27 07:19:21;;;;;;;1.88;1.13;;;16.40;99.90;;;;;;4994286;28;20263;-69
2023/07/27 07:21:47;;;;;;;1.65;1.35;;;16.40;99.90;;;;;;5003384;28;20033;-70
2023/07/27 07:24:13;;;;;;;3.60;1.20;;;16.40;99.90;;;;;;5005683;28;20125;-70
2023/07/27 07:26:38;;;;;;;1.85;1.30;;;16.50;99.90;;;;;;5003980;28;20038;-71
2023/07/27 07:29:04;;;;;;;2.38;1.30;;;16.50;99.90;;;;;;5007120;28;20037;-70
2023/07/27 07:31:30;;;;;;;1.63;1.05;;;16.50;99.90;;;;;;5000626;28;20113;-70
2023/07/27 07:33:56;;;;;;;2.08;1.10;;;16.60;99.90;;;;;;4997738;28;20042;-71
2023/07/27 07:36:22;;;;;;;2.58;1.23;;;16.60;99.90;;;;;;5004284;28;20053;-69
2023/07/27 07:38:48;;;;;;;1.95;1.15;;;16.70;99.90;;;;;;4993964;28;20038;-70
2023/07/27 07:41:13;;;;;;;2.95;0.80;;;16.70;99.90;;;;;;5005981;28;20729;-71
2023/07/27 07:43:39;;;;;;;1.52;1.00;;;16.80;99.90;;;;;;5003755;28;20025;-70
2023/07/27 07:46:09;;;;;;;3.90;0.90;;;16.80;99.90;;;;;;5007416;28;20431;-70
2023/07/27 07:48:34;;;;;;;1.95;0.88;;;16.90;99.90;;;;;;5006196;28;20050;-70
2023/07/27 07:51:00;;;;;;;1.83;0.93;;;16.90;99.90;;;;;;5011609;28;20096;-70
2023/07/27 07:53:25;;;;;;;2.90;1.00;;;16.90;99.90;;;;;;5010728;28;20030;-69
2023/07/27 07:55:51;;;;;;;2.55;0.77;;;16.90;99.90;;;;;;5006761;28;20405;-72
2023/07/27 07:58:16;;;;;;;0.77;0.50;;;16.90;99.90;;;;;;5001044;28;20522;-70
2023/07/27 08:00:42;;;;;;;1.05;0.50;;;17.00;99.90;;;;;;5001822;28;20502;-75
2023/07/27 08:03:08;;;;;;;0.50;0.40;;;17.10;99.90;;;;;;5003516;28;20037;-70
2023/07/27 08:05:34;;;;;;;1.77;0.40;;;17.00;99.90;;;;;;5008609;28;20038;-70
2023/07/27 08:08:00;;;;;;;0.32;0.20;;;17.10;99.90;;;;;;5015926;28;20057;-70
2023/07/27 08:10:25;;;;;;;0.38;0.20;;;17.20;99.90;;;;;;5007319;28;20058;-70
2023/07/27 08:12:52;;;;;;;2.58;0.40;;;17.20;99.90;;;;;;5005900;28;20435;-70
2023/07/27 08:15:18;;;;;;;0.55;0.43;;;17.30;99.90;;;;;;5010055;28;20400;-71
2023/07/27 08:17:44;;;;;;;2.50;0.40;;;17.30;99.90;;;;;;5004112;28;20100;-69
2023/07/27 08:20:10;;;;;;;2.05;0.30;;;17.30;99.90;;;;;;5003118;28;20109;-72
2023/07/27 08:22:35;;;;;;;0.82;0.50;;;17.30;99.90;;;;;;5004116;28;20415;-69
2023/07/27 08:25:01;;;;;;;2.83;0.60;;;17.30;99.90;;;;;;5010018;28;20021;-71
2023/07/27 08:27:27;;;;;;;1.05;0.45;;;17.40;99.90;;;;;;5010829;28;20038;-71
2023/07/27 08:29:52;;;;;;;3.15;0.90;;;17.40;99.90;;;;;;5004873;28;20471;-69
2023/07/27 08:32:18;;;;;;;0.75;0.60;;;17.40;99.90;;;;;;5011002;28;20034;-69
2023/07/27 08:34:43;;;;;;;2.92;0.73;;;17.40;99.90;;;;;;5014417;28;20442;-70
2023/07/27 08:37:09;;;;;;;0.90;0.50;;;17.40;99.90;;;;;;5006306;28;20399;-70
2023/07/27 08:39:34;;;;;;;0.60;0.45;;;17.30;99.90;;;;;;5004250;28;20046;-71
2023/07/27 08:42:00;;;;;;;0.93;0.50;;;17.40;99.90;;;;;;5006983;28;20095;-70
2023/07/27 08:44:27;;;;;;;0.60;0.40;;;17.50;99.90;;;;;;5009047;28;20644;-71
2023/07/27 08:46:54;;;;;;;0.52;0.40;;;17.50;99.90;;;;;;5007277;28;20052;-71
2023/07/27 08:49:20;;;;;;;0.38;0.20;;;17.60;99.90;;;;;;5009038;28;20034;-71
2023/07/27 08:51:45;;;;;;;0.22;0.20;;;17.60;99.90;;;;;;5003001;28;20045;-71
2023/07/27 08:54:11;;;;;;;2.38;0.40;;;17.60;99.90;;;;;;5009230;28;20499;-70
2023/07/27 08:56:37;;;;;;;1.05;0.30;;;17.60;99.90;;;;;;5010481;28;20046;-70
2023/07/27 08:59:03;;;;;;;0.70;0.50;;;17.60;99.90;;;;;;5006217;28;20045;-70
2023/07/27 09:01:28;;;;;;;1.33;0.35;;;17.60;99.90;;;;;;5014765;28;20037;-70
2023/07/27 09:03:54;;;;;;;1.02;0.50;;;17.70;99.90;;;;;;5002751;28;20044;-71
2023/07/27 09:06:43;;;;;;;2.15;0.40;;;17.70;99.90;;;;;;5010178;28;20497;-71
2023/07/27 09:09:22;;;;;;;0.52;0.30;;;17.70;99.90;;;;;;5008147;28;20040;-71
2023/07/27 09:11:48;;;;;;;0.98;0.30;;;17.70;99.90;;;;;;5008482;28;20042;-73
2023/07/27 09:14:19;;;;;;;0.70;0.50;;;17.70;99.90;;;;;;5008194;28;20045;-70
2023/07/27 09:16:46;;;;;;;0.90;0.38;;;17.70;99.90;;;;;;5006970;28;20034;-71
2023/07/27 09:19:13;;;;;;;1.38;0.40;;;17.80;99.90;;;;;;5006549;28;20058;-71
2023/07/27 09:21:44;;;;;;;0.50;0.38;;;17.80;99.90;;;;;;5003943;28;20415;-70
2023/07/27 09:24:14;;;;;;;3.22;0.40;;;17.80;99.90;;;;;;5005665;28;20033;-70
2023/07/27 09:26:47;;;;;;;2.10;0.50;;;17.80;99.90;;;;;;5005962;28;20037;-70
2023/07/27 09:29:14;;;;;;;2.22;0.40;;;17.90;99.90;;;;;;5004956;28;20462;-69
2023/07/27 09:31:48;;;;;;;2.05;0.30;;;18.00;99.90;;;;;;5006122;28;20073;-74
2023/07/27 09:34:14;;;;;;;1.65;0.30;;;18.00;99.90;;;;;;5004305;28;20042;-69
2023/07/27 09:36:40;;;;;;;0.60;0.30;;;18.00;99.90;;;;;;5005549;28;20128;-71
2023/07/27 09:39:06;;;;;;;0.32;0.13;;;18.00;99.90;;;;;;5006306;28;20798;-71
2023/07/27 09:41:32;;;;;;;0.93;0.30;;;18.00;99.90;;;;;;5006360;28;20033;-71
2023/07/27 09:43:58;;;;;;;0.20;0.20;;;18.00;99.90;;;;;;5001213;28;20033;-71
2023/07/27 09:46:24;;;;;;;0.30;0.10;;;18.10;99.90;;;;;;5004908;28;20069;-71
2023/07/27 09:48:50;;;;;;;1.17;0.20;;;18.10;99.90;;;;;;5005377;28;20108;-70
2023/07/27 09:51:16;;;;;;;0.20;0.20;;;18.20;99.90;;;;;;5008510;28;20492;-71
2023/07/27 09:53:44;;;;;;;0.30;0.10;;;18.20;99.90;;;;;;5006130;28;20037;-71
2023/07/27 09:56:10;;;;;;;0.30;0.17;;;18.20;99.90;;;;;;5007656;28;20579;-71
2023/07/27 09:58:37;;;;;;;0.45;0.20;;;18.30;99.90;;;;;;5008072;28;20030;-71
2023/07/27 10:01:02;;;;;;;0.40;0.20;;;18.30;99.90;;;;;;5005913;28;20045;-71
2023/07/27 10:03:28;;;;;;;1.00;0.38;;;18.40;99.90;;;;;;5006446;28;20046;-71
2023/07/27 10:05:54;;;;;;;0.55;0.20;;;18.40;99.90;;;;;;5005194;28;20041;-70
2023/07/27 10:08:20;;;;;;;0.30;0.20;;;18.40;99.90;;;;;;4998201;28;20400;-71
2023/07/27 10:10:58;;;;;;;0.50;0.20;;;18.30;99.90;;;;;;5006468;28;20030;-76
2023/07/27 10:13:24;;;;;;;0.85;0.30;;;18.40;99.90;;;;;;5007735;28;20040;-70
2023/07/27 10:15:52;;;;;;;0.77;0.30;;;18.40;99.90;;;;;;5004733;28;20397;-71
2023/07/27 10:18:26;;;;;;;0.93;0.20;;;18.50;99.90;;;;;;5006286;28;20565;-71
2023/07/27 10:20:54;;;;;;;2.00;0.30;;;18.50;99.90;;;;;;5002366;28;20044;-71
2023/07/27 10:23:28;;;;;;;0.70;0.30;;;18.50;99.90;;;;;;5002718;28;20122;-71
2023/07/27 10:25:56;;;;;;;0.80;0.20;;;18.50;99.90;;;;;;5002925;28;20554;-71
2023/07/27 10:28:51;;;;;;;2.50;0.65;;;18.50;99.90;;;;;;4999711;28;20042;-71
2023/07/27 10:31:20;;;;;;;0.40;0.20;;;18.40;99.90;;;;;;4983479;28;20470;-71
2023/07/27 10:33:54;;;;;;;1.97;0.40;;;18.50;99.90;;;;;;5005527;28;20100;-71
2023/07/27 10:36:23;;;;;;;0.90;0.28;;;18.60;99.90;;;;;;4999464;28;20044;-71
2023/07/27 10:38:56;;;;;;;1.45;0.20;;;18.70;99.90;;;;;;5003288;28;20572;-69
2023/07/27 10:41:25;;;;;;;2.08;0.40;;;18.70;99.90;;;;;;5000899;28;20037;-71
2023/07/27 10:44:06;;;;;;;2.47;0.30;;;18.70;99.90;;;;;;5001262;28;20057;-69
2023/07/27 10:46:32;;;;;;;5.80;0.40;;;18.70;99.90;;;;;;5000224;28;20050;-71
2023/07/27 10:49:07;;;;;;;1.48;0.32;;;18.60;99.90;;;;;;4996809;28;20049;-69
2023/07/27 10:51:33;;;;;;;1.33;0.30;;;18.60;99.90;;;;;;4998783;28;20111;-69
2023/07/27 10:53:59;;;;;;;0.40;0.22;;;18.60;99.90;;;;;;5003468;28;20053;-70
2023/07/27 10:56:25;;;;;;;0.85;0.20;;;18.60;99.90;;;;;;5000392;28;20044;-70
2023/07/27 10:58:56;;;;;;;1.10;0.30;;;18.70;99.90;;;;;;4997895;28;20075;-71
2023/07/27 11:01:22;;;;;;;3.10;0.63;;;18.70;99.90;;;;;;5002321;28;20065;-70
2023/07/27 11:03:49;;;;;;;0.73;0.40;;;18.60;99.90;;;;;;5007231;28;20718;-71
2023/07/27 11:06:14;;;;;;;0.52;0.40;;;18.70;99.90;;;;;;5004777;28;20037;-71
2023/07/27 11:08:40;;;;;;;2.15;0.40;;;18.90;99.90;;;;;;4996718;28;20049;-69
2023/07/27 11:11:17;;;;;;;2.78;0.50;;;19.00;99.90;;;;;;5001005;28;20079;-71
2023/07/27 11:13:42;;;;;;;0.75;0.30;;;19.20;99.90;;;;;;5006609;28;20449;-70
2023/07/27 11:16:08;;;;;;;1.48;0.20;;;19.20;99.90;;;;;;5005114;28;20041;-70
2023/07/27 11:18:34;;;;;;;0.40;0.20;;;19.10;99.90;;;;;;5007036;28;20156;-70
2023/07/27 11:21:02;;;;;;;0.60;0.30;;;19.00;99.90;;;;;;5006157;28;20060;-69
2023/07/27 11:23:29;;;;;;;0.77;0.30;;;19.00;99.90;;;;;;5005746;28;20808;-69
2023/07/27 11:25:56;;;;;;;1.75;0.73;;;19.00;99.90;;;;;;5000027;28;20037;-71
2023/07/27 11:28:22;;;;;;;1.48;0.30;;;18.90;99.90;;;;;;5004068;28;20159;-71
2023/07/27 11:30:52;;;;;;;1.75;0.32;;;18.90;99.90;;;;;;5004218;28;20069;-69
2023/07/27 11:33:26;;;;;;;1.17;0.60;;;18.90;99.90;;;;;;5006025;28;20121;-69
2023/07/27 11:35:52;;;;;;;0.75;0.45;;;18.90;99.90;;;;;;5003261;28;20026;-71
2023/07/27 11:38:17;;;;;;;1.30;0.43;;;19.00;99.90;;;;;;5005996;28;20049;-69
2023/07/27 11:40:49;;;;;;;0.45;0.20;;;19.00;99.90;;;;;;5006429;28;20733;-69
2023/07/27 11:43:15;;;;;;;2.05;0.40;;;19.00;99.90;;;;;;5005839;28;20423;-69
2023/07/27 11:45:40;;;;;;;1.15;0.30;;;19.00;99.90;;;;;;5006167;28;20507;-71
2023/07/27 11:48:06;;;;;;;0.98;0.55;;;18.90;99.90;;;;;;5001636;28;20064;-71
2023/07/27 11:50:38;;;;;;;0.70;0.30;;;19.00;99.90;;;;;;5004353;28;20924;-71
2023/07/27 11:53:10;;;;;;;2.28;0.47;;;19.00;99.90;;;;;;5001649;28;20050;-71
2023/07/27 11:55:36;;;;;;;0.88;0.20;;;19.00;99.90;;;;;;5007054;28;20037;-71
2023/07/27 11:58:09;;;;;;;1.77;0.30;;;19.00;99.90;;;;;;5002491;28;20135;-70
2023/07/27 12:00:36;;;;;;;2.38;0.10;;;19.00;99.90;;;;;;5002742;28;20432;-69
2023/07/27 12:03:03;;;;;;;1.25;0.10;;;18.90;99.90;;;;;;5003706;28;20053;-69
2023/07/27 12:05:31;;;;;;;1.27;0.63;;;19.00;99.90;;;;;;5005998;28;20112;-70
2023/07/27 12:07:57;;;;;;;0.30;0.20;;;19.10;99.90;;;;;;5004975;28;20048;-70
2023/07/27 12:10:24;;;;;;;2.20;0.20;;;19.10;99.90;;;;;;5002754;28;20461;-70
2023/07/27 12:13:03;;;;;;;0.80;0.28;;;19.10;99.90;;;;;;4999648;28;20172;-70
2023/07/27 12:15:32;;;;;;;0.45;0.30;;;19.10;99.90;;;;;;5003855;28;20558;-70
2023/07/27 12:17:59;;;;;;;0.55;0.30;;;19.00;99.90;;;;;;5003855;28;20041;-69
2023/07/27 12:20:25;;;;;;;0.57;0.20;;;19.00;99.90;;;;;;5006167;28;20052;-70
2023/07/27 12:22:51;;;;;;;4.03;0.60;;;19.00;99.90;;;;;;5001299;28;20034;-72
2023/07/27 12:25:17;;;;;;;2.30;0.40;;;19.10;99.90;;;;;;5006598;28;20049;-70
2023/07/27 12:27:43;;;;;;;2.00;0.25;;;19.10;99.90;;;;;;5004276;28;20041;-71
2023/07/27 12:30:11;;;;;;;4.20;0.43;;;19.10;99.90;;;;;;5002659;28;20040;-71
2023/07/27 12:32:36;;;;;;;5.60;0.32;;;19.10;99.90;;;;;;5005895;28;20499;-71
2023/07/27 12:35:03;;;;;;;0.70;0.30;;;19.10;99.90;;;;;;5008759;28;20030;-71
2023/07/27 12:37:30;;;;;;;1.23;0.32;;;19.20;99.90;;;;;;5003991;28;20125;-70
2023/07/27 12:39:56;;;;;;;0.95;0.20;;;19.20;99.90;;;;;;5015343;28;20088;-71
2023/07/27 12:42:21;;;;;;;0.43;0.25;;;19.30;99.90;;;;;;5014060;28;20045;-70
2023/07/27 12:44:47;;;;;;;0.75;0.30;;;19.40;99.90;;;;;;5005715;28;20092;-72
2023/07/27 12:47:12;;;;;;;1.42;0.47;;;19.30;99.90;;;;;;5015045;28;20105;-70